Glen Innes, Australia
Current Conditions -  °F | °C
As of 10:10 AM on Friday 19 Dec 2014 (Local Time) from YGFN Reporting Station
Clear Clear  
Wind Chill: 82°   Ceiling: Unl
Heat Index: 82°   Visibility: 6mi
Dew Point: 59°   Wind: 7mph
Humidity: 45%   Direction: 250°WSW
Pressure: 29.8"   Gusts: NA
Location:  29.74°S, 151.73°E
Report Text: YGFN 182310Z AUTO 25006KT 210V300 9000 // NCD 28/15 Q1009
Loading
Personal Weather Stations






























Interactive Weather Map New forecast layout! Learn more

10-Day Weather Forecast

Advertisements
Track Severe Weather on mobile